TimeEDT,TemperatureF,Dew PointF,Humidity,Sea Level PressureIn,VisibilityMPH,Wind Direction,Wind SpeedMPH,Gust SpeedMPH,PrecipitationIn,Events,Conditions,WindDirDegrees,DateUTC
12:06 AM,64.4,64.4,100,29.87,8.0,NNE,3.5,-,N/A,,Overcast,20,2013-09-26 04:06:00
12:53 AM,64.9,63.0,93,29.86,10.0,North,4.6,-,N/A,,Overcast,10,2013-09-26 04:53:00
1:21 AM,64.4,62.6,94,29.86,10.0,North,5.8,-,N/A,,Overcast,10,2013-09-26 05:21:00
1:53 AM,64.0,62.1,93,29.86,10.0,NNE,10.4,-,N/A,,Overcast,20,2013-09-26 05:53:00
2:53 AM,64.0,62.1,93,29.86,10.0,NNE,8.1,-,0.00,,Overcast,20,2013-09-26 06:53:00
3:23 AM,64.4,62.6,94,29.86,10.0,NNE,8.1,-,N/A,,Overcast,20,2013-09-26 07:23:00
3:53 AM,64.0,62.1,93,29.86,9.0,NNE,9.2,-,0.00,Rain,Light Rain,20,2013-09-26 07:53:00
4:53 AM,64.0,63.0,96,29.86,10.0,North,4.6,-,0.00,,Overcast,10,2013-09-26 08:53:00
5:43 AM,64.4,62.6,94,29.87,8.0,NNE,5.8,-,N/A,,Overcast,20,2013-09-26 09:43:00
5:53 AM,64.0,62.1,93,29.87,10.0,NNE,4.6,-,N/A,,Overcast,30,2013-09-26 09:53:00
6:53 AM,64.0,62.1,93,29.88,10.0,NNE,4.6,-,N/A,,Overcast,20,2013-09-26 10:53:00
7:53 AM,64.9,62.1,90,29.91,8.0,North,5.8,-,0.01,,Overcast,360,2013-09-26 11:53:00
8:53 AM,66.0,62.1,87,29.92,8.0,North,8.1,-,N/A,,Overcast,10,2013-09-26 12:53:00
9:53 AM,68.0,62.1,81,29.94,9.0,NNE,6.9,-,N/A,,Overcast,20,2013-09-26 13:53:00
10:53 AM,70.0,62.1,76,29.94,10.0,North,11.5,-,N/A,,Mostly Cloudy,10,2013-09-26 14:53:00
11:53 AM,73.0,62.1,68,29.94,10.0,NNE,11.5,-,N/A,,Overcast,30,2013-09-26 15:53:00
12:53 PM,73.9,61.0,64,29.93,10.0,NE,6.9,-,N/A,,Overcast,40,2013-09-26 16:53:00
1:53 PM,75.0,61.0,62,29.93,10.0,North,6.9,-,N/A,,Overcast,360,2013-09-26 17:53:00
2:00 PM,75.2,60.8,61,29.93,10.0,NNE,8.1,-,N/A,,Overcast,30,2013-09-26 18:00:00
2:53 PM,77.0,60.1,56,29.91,10.0,NE,5.8,-,N/A,,Mostly Cloudy,50,2013-09-26 18:53:00
3:53 PM,79.0,57.9,48,29.90,10.0,NNE,10.4,-,N/A,,Scattered Clouds,30,2013-09-26 19:53:00
4:53 PM,80.1,57.9,47,29.91,10.0,NNE,6.9,-,N/A,,Scattered Clouds,30,2013-09-26 20:53:00
5:53 PM,77.0,57.9,52,29.92,10.0,NE,6.9,-,N/A,,Partly Cloudy,40,2013-09-26 21:53:00
6:53 PM,73.9,59.0,59,29.93,10.0,NNE,3.5,-,N/A,,Clear,30,2013-09-26 22:53:00
7:53 PM,69.1,60.1,73,29.95,10.0,North,3.5,-,N/A,,Clear,10,2013-09-26 23:53:00
8:53 PM,64.0,61.0,90,29.96,10.0,Calm,Calm,-,N/A,,Clear,0,2013-09-27 00:53:00
9:53 PM,63.0,61.0,93,29.98,9.0,Calm,Calm,-,N/A,,Clear,0,2013-09-27 01:53:00
10:53 PM,63.0,60.1,90,29.99,10.0,Calm,Calm,-,N/A,,Clear,0,2013-09-27 02:53:00
11:53 PM,62.1,60.1,93,30.00,9.0,Calm,Calm,-,N/A,,Clear,0,2013-09-27 03:53:00